createdAt,value
2019-01-15T00:00:34.960Z,97357.30
2019-01-15T00:05:29.651Z,97352.14
2019-01-15T00:10:24.236Z,97357.32
2019-01-15T00:15:18.799Z,97365.75
2019-01-15T00:20:16.222Z,97372.38
2019-01-15T00:25:11.524Z,97367.36
2019-01-15T00:30:18.187Z,97381.75
2019-01-15T00:35:13.452Z,97384.20
2019-01-15T00:40:12.645Z,97395.22
2019-01-15T00:45:10.426Z,97389.70
2019-01-15T00:50:11.925Z,97419.18
2019-01-15T00:55:09.166Z,97427.23
2019-01-15T01:00:06.027Z,97414.63
2019-01-15T01:05:00.687Z,97430.48
2019-01-15T01:09:55.267Z,97441.33
2019-01-15T01:14:49.905Z,97460.89
2019-01-15T01:19:44.563Z,97463.65
2019-01-15T01:24:39.189Z,97462.19
2019-01-15T01:29:33.777Z,97470.72
2019-01-15T01:34:28.387Z,97463.78
2019-01-15T01:39:22.977Z,97467.08
2019-01-15T01:44:17.556Z,97469.20
2019-01-15T01:49:12.155Z,97470.64
2019-01-15T01:54:06.864Z,97478.38
2019-01-15T01:59:01.452Z,97490.04
2019-01-15T02:03:56.083Z,97490.37
2019-01-15T02:08:50.745Z,97488.32
2019-01-15T02:13:45.330Z,97490.92
2019-01-15T02:18:39.930Z,97495.27
2019-01-15T02:23:34.518Z,97507.20
2019-01-15T02:28:29.100Z,97517.92
2019-01-15T02:33:23.669Z,97521.02
2019-01-15T02:38:18.332Z,97524.63
2019-01-15T02:43:13.015Z,97527.67
2019-01-15T02:48:07.687Z,97531.89
2019-01-15T02:53:02.262Z,97537.23
2019-01-15T02:57:56.870Z,97534.62
2019-01-15T03:02:51.609Z,97530.73
2019-01-15T03:07:46.198Z,97533.66
2019-01-15T03:12:42.493Z,97531.06
2019-01-15T03:17:37.075Z,97526.72
2019-01-15T03:22:31.676Z,97529.30
2019-01-15T03:27:26.342Z,97524.28
2019-01-15T03:32:20.925Z,97519.55
2019-01-15T03:37:15.531Z,97516.33
2019-01-15T03:42:10.189Z,97534.48
2019-01-15T03:47:04.873Z,97537.56
2019-01-15T03:51:59.485Z,97543.24
2019-01-15T03:56:54.072Z,97545.50
2019-01-15T04:01:48.663Z,97529.96
2019-01-15T04:06:43.320Z,97538.81
2019-01-15T04:11:37.907Z,97528.42
2019-01-15T04:16:32.487Z,97537.02
2019-01-15T04:21:27.101Z,97541.86
2019-01-15T04:26:21.686Z,97535.89
2019-01-15T04:31:16.280Z,97547.05
2019-01-15T04:36:10.862Z,97555.18
2019-01-15T04:41:05.543Z,97550.03
2019-01-15T04:46:00.150Z,97551.46
2019-01-15T04:50:54.746Z,97555.11
2019-01-15T04:55:49.376Z,97558.07
2019-01-15T05:00:43.948Z,97549.30
2019-01-15T05:05:38.619Z,97549.17
2019-01-15T05:10:33.203Z,97549.17
2019-01-15T05:15:27.875Z,97560.30
2019-01-15T05:20:22.451Z,97560.79
2019-01-15T05:25:23.903Z,97556.77
2019-01-15T05:30:22.649Z,97560.00
2019-01-15T05:35:17.300Z,97561.30
2019-01-15T05:40:15.099Z,97559.70
2019-01-15T05:45:16.170Z,97558.91
2019-01-15T05:50:13.133Z,97556.14
2019-01-15T05:55:10.036Z,97547.58
2019-01-15T06:00:16.779Z,97539.50
2019-01-15T06:05:13.402Z,97538.53
2019-01-15T06:10:15.847Z,97539.35
2019-01-15T06:15:17.833Z,97545.19
2019-01-15T06:20:19.054Z,97540.84
2019-01-15T06:25:14.262Z,97546.19
2019-01-15T06:30:25.669Z,97548.77
2019-01-15T06:35:20.759Z,97544.27
2019-01-15T06:40:21.024Z,97548.78
2019-01-15T06:45:28.085Z,97553.48
2019-01-15T06:50:22.808Z,97552.85
2019-01-15T06:55:21.010Z,97560.29
2019-01-15T07:00:20.145Z,97574.09
2019-01-15T07:05:14.965Z,97586.06
2019-01-15T07:10:25.957Z,97589.64
2019-01-15T07:15:20.696Z,97601.63
2019-01-15T07:20:17.733Z,97600.02
2019-01-15T07:25:16.493Z,97596.61
2019-01-15T07:30:21.605Z,97589.97
2019-01-15T07:35:17.213Z,97568.07
2019-01-15T07:40:14.483Z,97571.31
2019-01-15T07:45:14.791Z,97578.77
2019-01-15T07:50:21.900Z,97573.74
2019-01-15T07:55:20.186Z,97583.79
2019-01-15T08:00:21.862Z,97566.92
2019-01-15T08:05:20.590Z,97570.48
2019-01-15T08:10:17.989Z,97578.27
2019-01-15T08:15:20.327Z,97579.40
2019-01-15T08:20:16.733Z,97578.57
2019-01-15T08:25:14.535Z,97576.77
2019-01-15T08:30:27.694Z,97575.97
2019-01-15T08:35:23.072Z,97568.97
2019-01-15T08:40:19.119Z,97577.70
2019-01-15T08:45:16.876Z,97574.23
2019-01-15T08:50:16.167Z,97580.53
2019-01-15T08:55:10.951Z,97580.80
2019-01-15T09:00:09.510Z,97566.09
2019-01-15T09:05:05.085Z,97569.13
2019-01-15T09:10:01.932Z,97568.52
2019-01-15T09:14:56.837Z,97566.05
2019-01-15T09:19:52.014Z,97556.95
2019-01-15T09:24:46.593Z,97561.21
2019-01-15T09:29:41.876Z,97569.25
2019-01-15T09:34:38.028Z,97570.09
2019-01-15T09:39:44.509Z,97566.98
2019-01-15T09:44:55.056Z,97569.50
2019-01-15T09:49:45.962Z,97566.66
2019-01-15T09:54:40.703Z,97562.01
2019-01-15T09:59:35.365Z,97554.09
2019-01-15T10:04:29.982Z,97557.69
2019-01-15T10:09:24.740Z,97555.48
2019-01-15T10:14:19.594Z,97553.92
2019-01-15T10:19:15.687Z,97546.48
2019-01-15T10:24:10.428Z,97547.37
2019-01-15T10:29:05.183Z,97533.84
2019-01-15T10:34:02.162Z,97524.53
2019-01-15T10:38:56.787Z,97522.11
2019-01-15T10:43:51.402Z,97521.12
2019-01-15T10:48:45.993Z,97515.51
2019-01-15T10:53:40.651Z,97511.66
2019-01-15T10:58:38.709Z,97515.67
2019-01-15T11:03:33.316Z,97509.34
2019-01-15T11:08:28.063Z,97511.25
2019-01-15T11:13:22.700Z,97512.25
2019-01-15T11:18:17.357Z,97510.68
2019-01-15T11:23:11.955Z,97508.80
2019-01-15T11:28:06.764Z,97502.80
2019-01-15T11:33:01.356Z,97503.46
2019-01-15T11:37:56.007Z,97507.20
2019-01-15T11:42:50.954Z,97508.63
2019-01-15T11:47:45.813Z,97503.08
2019-01-15T11:52:40.479Z,97496.50
2019-01-15T11:57:35.109Z,97488.40
2019-01-15T12:02:33.204Z,97485.59
2019-01-15T12:07:29.510Z,97492.14
2019-01-15T12:12:43.327Z,97493.98
2019-01-15T12:17:39.549Z,97485.16
2019-01-15T12:22:50.761Z,97483.30
2019-01-15T12:27:52.595Z,97473.27
2019-01-15T12:32:51.224Z,97461.38
2019-01-15T12:37:56.262Z,97463.96
2019-01-15T12:43:11.064Z,97454.39
2019-01-15T12:48:16.779Z,97455.72
2019-01-15T12:53:22.207Z,97455.06
2019-01-15T12:58:33.437Z,97440.92
2019-01-15T13:03:38.147Z,97435.54
2019-01-15T13:08:38.712Z,97430.26
2019-01-15T13:13:44.499Z,97429.60
2019-01-15T13:18:42.785Z,97426.64
2019-01-15T13:23:47.866Z,97426.67
2019-01-15T13:28:48.639Z,97418.75
2019-01-15T13:33:57.503Z,97415.45
2019-01-15T13:38:54.927Z,97407.41
2019-01-15T13:43:57.449Z,97409.87
2019-01-15T13:49:18.317Z,97416.09
2019-01-15T13:54:37.651Z,97414.92
2019-01-15T13:59:51.435Z,97415.32
2019-01-15T14:05:03.888Z,97408.63
2019-01-15T14:10:02.971Z,97416.11
2019-01-15T14:15:01.069Z,97414.92
2019-01-15T14:20:06.554Z,97410.73
2019-01-15T14:25:06.215Z,97415.45
2019-01-15T14:30:08.827Z,97419.44
2019-01-15T14:35:08.565Z,97420.86
2019-01-15T14:40:08.758Z,97422.50
2019-01-15T14:45:21.412Z,97431.22
2019-01-15T14:50:18.162Z,97427.00
2019-01-15T14:55:23.755Z,97427.28
2019-01-15T15:00:31.460Z,97421.88
2019-01-15T15:05:33.900Z,97427.63
2019-01-15T15:10:42.963Z,97431.53
2019-01-15T15:15:39.228Z,97429.20
2019-01-15T15:20:35.465Z,97431.77
2019-01-15T15:25:34.550Z,97425.78
2019-01-15T15:30:39.798Z,97437.31
2019-01-15T15:35:36.630Z,97429.48
2019-01-15T15:40:33.624Z,97426.97
2019-01-15T15:45:36.012Z,97430.09
2019-01-15T15:50:52.513Z,97439.63
2019-01-15T15:55:54.310Z,97436.48
2019-01-15T16:00:59.512Z,97427.99
2019-01-15T16:06:02.658Z,97424.33
2019-01-15T16:11:15.111Z,97427.69
2019-01-15T16:16:18.606Z,97426.47
2019-01-15T16:21:11.197Z,97424.56
2019-01-15T16:26:05.687Z,97418.76
2019-01-15T16:31:07.813Z,97425.61
2019-01-15T16:36:18.396Z,97429.03
2019-01-15T16:41:12.836Z,97439.16
2019-01-15T16:46:09.236Z,97441.78
2019-01-15T16:51:08.188Z,97439.98
2019-01-15T16:56:05.184Z,97442.58
2019-01-15T17:01:07.326Z,97439.08
2019-01-15T17:06:16.558Z,97439.58
2019-01-15T17:11:12.799Z,97431.31
2019-01-15T17:16:25.364Z,97427.13
2019-01-15T17:21:33.532Z,97438.66
2019-01-15T17:26:32.498Z,97429.94
2019-01-15T17:31:34.423Z,97430.42
2019-01-15T17:36:36.549Z,97413.75
2019-01-15T17:41:41.626Z,97413.76
2019-01-15T17:46:40.910Z,97409.72
2019-01-15T17:51:39.788Z,97408.13
2019-01-15T17:56:38.808Z,97403.28
2019-01-15T18:01:35.056Z,97411.68
2019-01-15T18:06:39.826Z,97411.37
2019-01-15T18:11:52.069Z,97414.30
2019-01-15T18:16:54.013Z,97417.70
2019-01-15T18:22:04.967Z,97426.61
2019-01-15T18:27:01.187Z,97431.81
2019-01-15T18:32:04.247Z,97445.72
2019-01-15T18:37:16.318Z,97439.89
2019-01-15T18:42:28.427Z,97431.14
2019-01-15T18:47:22.774Z,97427.28
2019-01-15T18:52:23.206Z,97418.36
2019-01-15T18:57:19.440Z,97416.91
2019-01-15T19:02:19.306Z,97408.17
2019-01-15T19:07:21.326Z,97402.17
2019-01-15T19:12:33.665Z,97394.41
2019-01-15T19:17:46.258Z,97401.36
2019-01-15T19:22:54.444Z,97390.67
2019-01-15T19:27:50.820Z,97397.79
2019-01-15T19:33:02.792Z,97397.77
2019-01-15T19:37:59.042Z,97392.23
2019-01-15T19:42:55.269Z,97397.41
2019-01-15T19:47:49.644Z,97396.45
2019-01-15T19:52:52.017Z,97401.80
2019-01-15T19:57:48.296Z,97401.94
2019-01-15T20:02:44.538Z,97403.56
2019-01-15T20:07:49.479Z,97401.61
2019-01-15T20:12:57.904Z,97402.07
2019-01-15T20:17:54.164Z,97403.83
2019-01-15T20:22:57.611Z,97396.86
2019-01-15T20:27:53.853Z,97398.45
2019-01-15T20:32:52.941Z,97394.41
2019-01-15T20:37:49.256Z,97387.11
2019-01-15T20:42:45.533Z,97387.56
2019-01-15T20:47:56.328Z,97383.36
2019-01-15T20:53:09.015Z,97373.47
2019-01-15T20:58:23.221Z,97382.52
2019-01-15T21:03:20.433Z,97379.14
2019-01-15T21:08:32.727Z,97371.37
2019-01-15T21:13:45.120Z,97376.06
2019-01-15T21:18:57.623Z,97366.55
2019-01-15T21:24:02.663Z,97359.08
2019-01-15T21:29:11.304Z,97369.25
2019-01-15T21:34:23.607Z,97365.21
2019-01-15T21:39:19.901Z,97365.08
2019-01-15T21:44:24.904Z,97356.36
2019-01-15T21:49:24.934Z,97359.38
2019-01-15T21:54:21.267Z,97353.98
2019-01-15T21:59:20.309Z,97346.97
2019-01-15T22:04:31.126Z,97350.95
2019-01-15T22:09:43.813Z,97346.24
2019-01-15T22:14:41.179Z,97348.04
2019-01-15T22:19:53.238Z,97339.66
2019-01-15T22:24:56.724Z,97338.14
2019-01-15T22:29:52.960Z,97331.68
2019-01-15T22:34:53.092Z,97335.55
2019-01-15T22:40:05.692Z,97332.52
2019-01-15T22:45:18.006Z,97333.18
2019-01-15T22:50:12.499Z,97329.34
2019-01-15T22:55:28.029Z,97323.23
2019-01-15T23:00:43.061Z,97326.44
2019-01-15T23:05:48.240Z,97303.20
2019-01-15T23:10:47.489Z,97300.30
2019-01-15T23:15:52.910Z,97296.13
2019-01-15T23:21:04.926Z,97284.01
2019-01-15T23:26:01.755Z,97284.80
2019-01-15T23:31:00.647Z,97275.09
2019-01-15T23:36:06.869Z,97282.55
2019-01-15T23:41:19.546Z,97285.71
2019-01-15T23:46:18.519Z,97278.85
2019-01-15T23:51:17.733Z,97277.55
2019-01-15T23:56:30.007Z,97270.92
